Terminal Aerodrome Forecast
Issued by NWS

Home | Current Version | Previous Version | Text Only | Print | Product List | Glossary On
Versions: 1 2 3 4 5 6 7 8 9 10 11 12 13 14
904
FTUS43 KEAX 251720
TAFMKC
TAF
KMKC 251720Z 2518/2618 34007KT P6SM VCSH SCT015 BKN025
     FM260000 31004KT P6SM BKN010 OVC015
     FM261700 27005KT P6SM BKN020=

USA.gov is the U.S. government's official web portal to all federal, state and local government web resources and services.